NPT2204 EGCC-LYTV
Flight info
| Callsign | NPT2204 |
|---|---|
| Flight time | N/A |
| Altitude | 33000 |
| Route | LISTO L612 HON L15 FINMA DCT CHT DCT ITVIP DCT KONAN DCT KOK DCT DIK M150 PITES DCT KRH/N0450F350 DCT KUNOD DCT GEDSO DCT VEKEN DCT NERRA/N0381F190 L607 BALHA L187 TAZ |
| Aircraft | A321/M-SDE3FGHIRWY/LB1 |
Departure
| Time | 2026-05-04 13:06 |
|---|---|
| Airport | Manchester Airport (EGCC) |
Arrival
| Time | N/A |
|---|---|
| Airport | Tivat Airport (LYTV) |
| Time | Latitude | Longitude | Altitude | Speed | Heading |
|---|---|---|---|---|---|
| 2026-05-04 12:46 | 53.36738 | -2.28458 | 255 ft | 0 kts | 135° |
| 2026-05-04 12:54 | 53.36747 | -2.28474 | 255 ft | 3 kts | 135° |
| 2026-05-04 12:55 | 53.36759 | -2.28495 | 255 ft | 2 kts | 134° |
| 2026-05-04 12:55 | 53.36773 | -2.28514 | 255 ft | 3 kts | 161° |
| 2026-05-04 12:55 | 53.36789 | -2.28516 | 255 ft | 3 kts | 211° |
| 2026-05-04 12:55 | 53.36803 | -2.28498 | 255 ft | 2 kts | 224° |
| 2026-05-04 12:56 | 53.36807 | -2.28490 | 255 ft | 0 kts | 224° |
| 2026-05-04 12:58 | 53.36800 | -2.28503 | 255 ft | 4 kts | 224° |
| 2026-05-04 12:58 | 53.36763 | -2.28562 | 255 ft | 10 kts | 224° |
| 2026-05-04 12:59 | 53.36707 | -2.28653 | 255 ft | 12 kts | 224° |
| 2026-05-04 12:59 | 53.36647 | -2.28751 | 255 ft | 12 kts | 224° |
| 2026-05-04 12:59 | 53.36574 | -2.28776 | 255 ft | 12 kts | 146° |
| 2026-05-04 12:59 | 53.36519 | -2.28654 | 255 ft | 15 kts | 129° |
| 2026-05-04 13:00 | 53.36441 | -2.28523 | 255 ft | 16 kts | 135° |
| 2026-05-04 13:00 | 53.36341 | -2.28450 | 255 ft | 16 kts | 154° |
| 2026-05-04 13:00 | 53.36259 | -2.28325 | 255 ft | 16 kts | 134° |
| 2026-05-04 13:00 | 53.36179 | -2.28189 | 255 ft | 17 kts | 135° |
| 2026-05-04 13:01 | 53.36095 | -2.28051 | 255 ft | 17 kts | 136° |
| 2026-05-04 13:01 | 53.36007 | -2.27916 | 255 ft | 17 kts | 139° |
| 2026-05-04 13:01 | 53.35899 | -2.27858 | 255 ft | 17 kts | 190° |
| 2026-05-04 13:01 | 53.35771 | -2.27868 | 248 ft | 20 kts | 187° |
| 2026-05-04 13:02 | 53.35629 | -2.27904 | 241 ft | 13 kts | 210° |
| 2026-05-04 13:02 | 53.35563 | -2.28028 | 239 ft | 16 kts | 232° |
| 2026-05-04 13:02 | 53.35462 | -2.28143 | 236 ft | 18 kts | 196° |
| 2026-05-04 13:02 | 53.35346 | -2.28181 | 236 ft | 18 kts | 195° |
| 2026-05-04 13:03 | 53.35233 | -2.28295 | 232 ft | 20 kts | 226° |
| 2026-05-04 13:03 | 53.35140 | -2.28481 | 228 ft | 22 kts | 229° |
| 2026-05-04 13:03 | 53.35049 | -2.28681 | 229 ft | 22 kts | 231° |
| 2026-05-04 13:03 | 53.34950 | -2.28867 | 226 ft | 19 kts | 223° |
| 2026-05-04 13:04 | 53.34850 | -2.29020 | 224 ft | 8 kts | 223° |
| 2026-05-04 13:04 | 53.34798 | -2.29084 | 221 ft | 11 kts | 201° |
| 2026-05-04 13:04 | 53.34715 | -2.29048 | 221 ft | 13 kts | 150° |
| 2026-05-04 13:04 | 53.34679 | -2.28929 | 224 ft | 11 kts | 64° |
| 2026-05-04 13:05 | 53.34726 | -2.28837 | 222 ft | 11 kts | 51° |
| 2026-05-04 13:05 | 53.34793 | -2.28699 | 228 ft | 33 kts | 51° |
| 2026-05-04 13:05 | 53.35109 | -2.28047 | 233 ft | 109 kts | 51° |
| 2026-05-04 13:05 | 53.35718 | -2.26787 | 270 ft | 167 kts | 51° |
| 2026-05-04 13:06 | 53.36492 | -2.25154 | 903 ft | 175 kts | 52° |
| 2026-05-04 13:06 | 53.37226 | -2.23576 | 1893 ft | 173 kts | 56° |
| 2026-05-04 13:06 | 53.37615 | -2.21653 | 2481 ft | 182 kts | 91° |
| 2026-05-04 13:06 | 53.37197 | -2.19606 | 2676 ft | 202 kts | 129° |
| 2026-05-04 13:07 | 53.36034 | -2.18107 | 2837 ft | 223 kts | 148° |
| 2026-05-04 13:07 | 53.34555 | -2.16947 | 3011 ft | 247 kts | 168° |
| 2026-05-04 13:07 | 53.32792 | -2.16931 | 3460 ft | 259 kts | 186° |
| 2026-05-04 13:07 | 53.30989 | -2.17254 | 4103 ft | 263 kts | 186° |
| 2026-05-04 13:08 | 53.29155 | -2.17561 | 4754 ft | 268 kts | 186° |
| 2026-05-04 13:08 | 53.27284 | -2.17864 | 5348 ft | 271 kts | 185° |
| 2026-05-04 13:08 | 53.25402 | -2.18164 | 6050 ft | 273 kts | 186° |
| 2026-05-04 13:08 | 53.23498 | -2.18467 | 6690 ft | 276 kts | 186° |
| 2026-05-04 13:09 | 53.21583 | -2.18770 | 7339 ft | 277 kts | 186° |
| 2026-05-04 13:09 | 53.20855 | -2.18884 | 7581 ft | 278 kts | 186° |
| 2026-05-04 13:09 | 53.20348 | -2.18963 | 7755 ft | 278 kts | 186° |
| 2026-05-04 13:09 | 53.18408 | -2.19267 | 8377 ft | 281 kts | 186° |
| 2026-05-04 13:10 | 53.16479 | -2.19570 | 8997 ft | 284 kts | 186° |
| 2026-05-04 13:10 | 53.14492 | -2.19594 | 9599 ft | 288 kts | 173° |
| 2026-05-04 13:10 | 53.12549 | -2.18710 | 10176 ft | 292 kts | 158° |
| 2026-05-04 13:10 | 53.10625 | -2.17358 | 10364 ft | 311 kts | 158° |
| 2026-05-04 13:11 | 53.08571 | -2.15923 | 10492 ft | 329 kts | 158° |
| 2026-05-04 13:11 | 53.06406 | -2.14420 | 10617 ft | 346 kts | 158° |
| 2026-05-04 13:11 | 53.04131 | -2.12845 | 10741 ft | 362 kts | 158° |
| 2026-05-04 13:11 | 53.01762 | -2.11211 | 11041 ft | 372 kts | 158° |
| 2026-05-04 13:12 | 52.99364 | -2.09557 | 11517 ft | 375 kts | 158° |
| 2026-05-04 13:12 | 52.96947 | -2.07895 | 12050 ft | 377 kts | 158° |
| 2026-05-04 13:12 | 52.94517 | -2.06229 | 12567 ft | 379 kts | 158° |
| 2026-05-04 13:12 | 52.92069 | -2.04554 | 13081 ft | 381 kts | 158° |
| 2026-05-04 13:13 | 52.89607 | -2.02868 | 13599 ft | 384 kts | 158° |
| 2026-05-04 13:13 | 52.87131 | -2.01166 | 14087 ft | 387 kts | 158° |
| 2026-05-04 13:13 | 52.84637 | -1.99456 | 14562 ft | 389 kts | 158° |
| 2026-05-04 13:13 | 52.82126 | -1.97740 | 15026 ft | 392 kts | 159° |
| 2026-05-04 13:14 | 52.79599 | -1.96015 | 15482 ft | 394 kts | 158° |
| 2026-05-04 13:14 | 52.77056 | -1.94275 | 15923 ft | 396 kts | 158° |
| 2026-05-04 13:14 | 52.74500 | -1.92530 | 16351 ft | 398 kts | 158° |
| 2026-05-04 13:14 | 52.71934 | -1.90785 | 16814 ft | 399 kts | 159° |
| 2026-05-04 13:15 | 52.69361 | -1.89042 | 17257 ft | 401 kts | 159° |
| 2026-05-04 13:15 | 52.66776 | -1.87295 | 17685 ft | 403 kts | 159° |
| 2026-05-04 13:15 | 52.64173 | -1.85538 | 18111 ft | 405 kts | 159° |
| 2026-05-04 13:15 | 52.61563 | -1.83777 | 18496 ft | 407 kts | 158° |
| 2026-05-04 13:16 | 52.58933 | -1.81999 | 18840 ft | 410 kts | 158° |
| 2026-05-04 13:16 | 52.56290 | -1.80213 | 19206 ft | 411 kts | 158° |
| 2026-05-04 13:16 | 52.53636 | -1.78421 | 19558 ft | 413 kts | 158° |
| 2026-05-04 13:16 | 52.50964 | -1.76622 | 19915 ft | 415 kts | 158° |
| 2026-05-04 13:17 | 52.48290 | -1.74826 | 20300 ft | 417 kts | 158° |
| 2026-05-04 13:17 | 52.45598 | -1.73021 | 20682 ft | 418 kts | 158° |
| 2026-05-04 13:17 | 52.42926 | -1.71234 | 21046 ft | 420 kts | 159° |
| 2026-05-04 13:17 | 52.40212 | -1.69421 | 21397 ft | 422 kts | 159° |
| 2026-05-04 13:18 | 52.37526 | -1.67467 | 21748 ft | 424 kts | 152° |
| 2026-05-04 13:18 | 52.35041 | -1.64845 | 22080 ft | 427 kts | 143° |
| 2026-05-04 13:18 | 52.32846 | -1.61551 | 22416 ft | 430 kts | 134° |
| 2026-05-04 13:18 | 52.31460 | -1.59135 | 22624 ft | 432 kts | 134° |
| 2026-05-04 13:19 | 52.29389 | -1.55562 | 22937 ft | 433 kts | 135° |
| 2026-05-04 13:19 | 52.27304 | -1.52004 | 23269 ft | 435 kts | 135° |
| 2026-05-04 13:19 | 52.25200 | -1.48443 | 23668 ft | 435 kts | 135° |
| 2026-05-04 13:19 | 52.23121 | -1.44931 | 23937 ft | 437 kts | 135° |
| 2026-05-04 13:20 | 52.20978 | -1.41313 | 24208 ft | 439 kts | 135° |
| 2026-05-04 13:20 | 52.18851 | -1.37714 | 24469 ft | 441 kts | 135° |
| 2026-05-04 13:20 | 52.16749 | -1.34153 | 24736 ft | 443 kts | 135° |
| 2026-05-04 13:20 | 52.14610 | -1.30531 | 25002 ft | 445 kts | 135° |
| 2026-05-04 13:21 | 52.12457 | -1.26892 | 25266 ft | 446 kts | 135° |
| 2026-05-04 13:21 | 52.10301 | -1.23250 | 25530 ft | 448 kts | 135° |
| 2026-05-04 13:21 | 52.08135 | -1.19601 | 25769 ft | 450 kts | 135° |
| 2026-05-04 13:21 | 52.05958 | -1.15940 | 26025 ft | 451 kts | 136° |
| 2026-05-04 13:22 | 52.03771 | -1.12269 | 26261 ft | 453 kts | 136° |
| 2026-05-04 13:22 | 52.01578 | -1.08591 | 26510 ft | 454 kts | 136° |
| 2026-05-04 13:22 | 51.99422 | -1.05007 | 26726 ft | 454 kts | 137° |
| 2026-05-04 13:22 | 51.97151 | -1.01456 | 26936 ft | 455 kts | 139° |
| 2026-05-04 13:23 | 51.94635 | -0.97773 | 27201 ft | 454 kts | 141° |
| 2026-05-04 13:23 | 51.92423 | -0.94663 | 27435 ft | 454 kts | 142° |
| 2026-05-04 13:23 | 51.90023 | -0.91332 | 27699 ft | 454 kts | 142° |
| 2026-05-04 13:23 | 51.87633 | -0.87996 | 27975 ft | 453 kts | 142° |
| 2026-05-04 13:24 | 51.85256 | -0.84646 | 28279 ft | 453 kts | 141° |
| 2026-05-04 13:24 | 51.82800 | -0.81144 | 28593 ft | 452 kts | 141° |
| 2026-05-04 13:24 | 51.80551 | -0.77909 | 28877 ft | 451 kts | 141° |
| 2026-05-04 13:25 | 51.75651 | -0.70858 | 29664 ft | 445 kts | 142° |
| 2026-05-04 13:25 | 51.73247 | -0.67405 | 30008 ft | 443 kts | 142° |
| 2026-05-04 13:25 | 51.71032 | -0.64234 | 30250 ft | 442 kts | 142° |
| 2026-05-04 13:25 | 51.68720 | -0.60941 | 30494 ft | 441 kts | 142° |
| 2026-05-04 13:26 | 51.66421 | -0.57676 | 30727 ft | 441 kts | 142° |
| 2026-05-04 13:26 | 51.64237 | -0.54193 | 30908 ft | 445 kts | 133° |
| 2026-05-04 13:26 | 51.62435 | -0.50180 | 31121 ft | 449 kts | 124° |
| 2026-05-04 13:26 | 51.61055 | -0.45662 | 31315 ft | 453 kts | 114° |
| 2026-05-04 13:27 | 51.60047 | -0.40845 | 31537 ft | 455 kts | 111° |
| 2026-05-04 13:27 | 51.59061 | -0.36016 | 31751 ft | 454 kts | 111° |
| 2026-05-04 13:27 | 51.58063 | -0.31189 | 31968 ft | 454 kts | 111° |
| 2026-05-04 13:27 | 51.57058 | -0.26384 | 32185 ft | 453 kts | 112° |
| 2026-05-04 13:28 | 51.56053 | -0.21588 | 32414 ft | 452 kts | 112° |
| 2026-05-04 13:28 | 51.55052 | -0.16810 | 32655 ft | 451 kts | 112° |
| 2026-05-04 13:28 | 51.54054 | -0.12044 | 32873 ft | 450 kts | 112° |
| 2026-05-04 13:28 | 51.53052 | -0.07269 | 33032 ft | 451 kts | 112° |
| 2026-05-04 13:29 | 51.51042 | 0.02277 | 33019 ft | 451 kts | 112° |
| 2026-05-04 13:29 | 51.49020 | 0.11823 | 33031 ft | 451 kts | 112° |
| 2026-05-04 13:30 | 51.46993 | 0.21338 | 33029 ft | 451 kts | 112° |
| 2026-05-04 13:30 | 51.44950 | 0.30889 | 33154 ft | 453 kts | 112° |
| 2026-05-04 13:31 | 51.43932 | 0.35652 | 33336 ft | 452 kts | 112° |
| 2026-05-04 13:31 | 51.42911 | 0.40419 | 33514 ft | 452 kts | 112° |
| 2026-05-04 13:31 | 51.41907 | 0.45084 | 33707 ft | 451 kts | 112° |
| 2026-05-04 13:31 | 51.40870 | 0.49890 | 33875 ft | 451 kts | 113° |
| 2026-05-04 13:32 | 51.39857 | 0.54571 | 34043 ft | 451 kts | 113° |
| 2026-05-04 13:32 | 51.38828 | 0.59320 | 34186 ft | 450 kts | 113° |
| 2026-05-04 13:32 | 51.37797 | 0.64053 | 34320 ft | 450 kts | 113° |
| 2026-05-04 13:32 | 51.36763 | 0.68777 | 34451 ft | 450 kts | 113° |
| 2026-05-04 13:33 | 51.35725 | 0.73516 | 34572 ft | 450 kts | 113° |